sensor_id;sensor_type;location;lat;lon;timestamp;temperature;humidity
70271;SHT31;57680;54.292;18.598;2022-12-01T00:02:12;0.75;93.59
70271;SHT31;57680;54.292;18.598;2022-12-01T00:04:38;0.76;93.54
70271;SHT31;57680;54.292;18.598;2022-12-01T00:07:03;0.79;93.57
70271;SHT31;57680;54.292;18.598;2022-12-01T00:09:29;0.80;93.41
70271;SHT31;57680;54.292;18.598;2022-12-01T00:12:13;0.80;93.36
70271;SHT31;57680;54.292;18.598;2022-12-01T00:14:39;0.81;93.31
70271;SHT31;57680;54.292;18.598;2022-12-01T00:17:04;0.81;93.15
70271;SHT31;57680;54.292;18.598;2022-12-01T00:19:30;0.84;93.00
70271;SHT31;57680;54.292;18.598;2022-12-01T00:21:55;0.86;92.97
70271;SHT31;57680;54.292;18.598;2022-12-01T00:24:21;0.87;92.96
70271;SHT31;57680;54.292;18.598;2022-12-01T00:26:48;0.91;92.98
70271;SHT31;57680;54.292;18.598;2022-12-01T00:29:13;0.94;93.05
70271;SHT31;57680;54.292;18.598;2022-12-01T00:31:39;0.90;92.95
70271;SHT31;57680;54.292;18.598;2022-12-01T00:34:05;0.91;93.04
70271;SHT31;57680;54.292;18.598;2022-12-01T00:36:31;0.89;93.13
70271;SHT31;57680;54.292;18.598;2022-12-01T00:38:56;0.87;93.17
70271;SHT31;57680;54.292;18.598;2022-12-01T00:41:23;0.86;92.79
70271;SHT31;57680;54.292;18.598;2022-12-01T00:43:49;0.83;92.77
70271;SHT31;57680;54.292;18.598;2022-12-01T00:46:15;0.84;93.19
70271;SHT31;57680;54.292;18.598;2022-12-01T00:48:41;0.84;93.32
70271;SHT31;57680;54.292;18.598;2022-12-01T00:51:06;0.86;93.31
70271;SHT31;57680;54.292;18.598;2022-12-01T00:53:32;0.87;93.25
70271;SHT31;57680;54.292;18.598;2022-12-01T00:55:57;0.89;93.24
70271;SHT31;57680;54.292;18.598;2022-12-01T00:58:23;0.87;92.98
70271;SHT31;57680;54.292;18.598;2022-12-01T01:00:58;0.86;93.26
70271;SHT31;57680;54.292;18.598;2022-12-01T01:03:25;0.90;93.27
70271;SHT31;57680;54.292;18.598;2022-12-01T01:05:50;0.90;93.24
70271;SHT31;57680;54.292;18.598;2022-12-01T01:08:16;0.90;93.00
70271;SHT31;57680;54.292;18.598;2022-12-01T01:10:43;0.91;93.15
70271;SHT31;57680;54.292;18.598;2022-12-01T01:13:10;0.93;93.14
70271;SHT31;57680;54.292;18.598;2022-12-01T01:15:36;0.96;93.07
70271;SHT31;57680;54.292;18.598;2022-12-01T01:18:03;0.94;92.88
70271;SHT31;57680;54.292;18.598;2022-12-01T01:20:32;0.94;93.04
70271;SHT31;57680;54.292;18.598;2022-12-01T01:22:57;0.96;93.01
70271;SHT31;57680;54.292;18.598;2022-12-01T01:25:23;0.99;93.00
70271;SHT31;57680;54.292;18.598;2022-12-01T01:27:49;0.94;92.91
70271;SHT31;57680;54.292;18.598;2022-12-01T01:30:15;0.99;92.84
70271;SHT31;57680;54.292;18.598;2022-12-01T01:32:41;0.97;92.61
70271;SHT31;57680;54.292;18.598;2022-12-01T01:35:06;0.99;92.63
70271;SHT31;57680;54.292;18.598;2022-12-01T01:37:32;1.03;92.58
70271;SHT31;57680;54.292;18.598;2022-12-01T01:39:58;1.03;92.27
70271;SHT31;57680;54.292;18.598;2022-12-01T01:42:23;1.01;92.23
70271;SHT31;57680;54.292;18.598;2022-12-01T01:44:54;1.01;92.30
70271;SHT31;57680;54.292;18.598;2022-12-01T01:47:33;1.01;91.92
70271;SHT31;57680;54.292;18.598;2022-12-01T01:50:03;0.97;92.15
70271;SHT31;57680;54.292;18.598;2022-12-01T01:52:32;1.03;92.40
70271;SHT31;57680;54.292;18.598;2022-12-01T01:55:01;1.07;92.56
70271;SHT31;57680;54.292;18.598;2022-12-01T01:57:29;1.13;92.04
70271;SHT31;57680;54.292;18.598;2022-12-01T02:00:17;1.16;92.11
70271;SHT31;57680;54.292;18.598;2022-12-01T02:02:44;1.16;92.12
70271;SHT31;57680;54.292;18.598;2022-12-01T02:05:16;1.14;92.03
70271;SHT31;57680;54.292;18.598;2022-12-01T02:07:43;1.16;92.03
70271;SHT31;57680;54.292;18.598;2022-12-01T02:10:12;1.17;91.97
70271;SHT31;57680;54.292;18.598;2022-12-01T02:15:40;1.17;91.92
70271;SHT31;57680;54.292;18.598;2022-12-01T02:18:31;1.20;91.93
70271;SHT31;57680;54.292;18.598;2022-12-01T02:26:51;1.19;92.22
70271;SHT31;57680;54.292;18.598;2022-12-01T02:32:30;1.20;92.30
70271;SHT31;57680;54.292;18.598;2022-12-01T02:37:49;1.20;92.37
70271;SHT31;57680;54.292;18.598;2022-12-01T02:40:38;1.21;92.45
70271;SHT31;57680;54.292;18.598;2022-12-01T02:46:21;1.21;92.25
70271;SHT31;57680;54.292;18.598;2022-12-01T02:48:47;1.21;92.31
70271;SHT31;57680;54.292;18.598;2022-12-01T02:51:20;1.23;92.24
70271;SHT31;57680;54.292;18.598;2022-12-01T02:53:47;1.21;92.30
70271;SHT31;57680;54.292;18.598;2022-12-01T02:56:13;1.23;92.21
70271;SHT31;57680;54.292;18.598;2022-12-01T02:58:41;1.24;92.00
70271;SHT31;57680;54.292;18.598;2022-12-01T03:01:30;1.27;92.02
70271;SHT31;57680;54.292;18.598;2022-12-01T03:04:11;1.26;92.10
70271;SHT31;57680;54.292;18.598;2022-12-01T03:09:45;1.23;92.18
70271;SHT31;57680;54.292;18.598;2022-12-01T03:12:38;1.20;92.13
70271;SHT31;57680;54.292;18.598;2022-12-01T03:15:09;1.21;92.26
70271;SHT31;57680;54.292;18.598;2022-12-01T03:17:45;1.23;92.27
70271;SHT31;57680;54.292;18.598;2022-12-01T03:20:41;1.23;92.31
70271;SHT31;57680;54.292;18.598;2022-12-01T03:23:14;1.23;92.41
70271;SHT31;57680;54.292;18.598;2022-12-01T03:25:43;1.24;92.48
70271;SHT31;57680;54.292;18.598;2022-12-01T03:28:12;1.21;92.58
70271;SHT31;57680;54.292;18.598;2022-12-01T03:30:40;1.21;92.44
70271;SHT31;57680;54.292;18.598;2022-12-01T03:33:17;1.21;92.36
70271;SHT31;57680;54.292;18.598;2022-12-01T03:36:12;1.24;92.51
70271;SHT31;57680;54.292;18.598;2022-12-01T03:38:50;1.24;92.65
70271;SHT31;57680;54.292;18.598;2022-12-01T03:41:22;1.26;92.58
70271;SHT31;57680;54.292;18.598;2022-12-01T03:44:06;1.23;92.33
70271;SHT31;57680;54.292;18.598;2022-12-01T03:46:48;1.24;92.13
70271;SHT31;57680;54.292;18.598;2022-12-01T03:49:16;1.27;92.14
70271;SHT31;57680;54.292;18.598;2022-12-01T03:52:07;1.28;92.03
70271;SHT31;57680;54.292;18.598;2022-12-01T03:55:00;1.28;91.79
70271;SHT31;57680;54.292;18.598;2022-12-01T03:57:34;1.24;91.68
70271;SHT31;57680;54.292;18.598;2022-12-01T04:00:00;1.26;91.65
70271;SHT31;57680;54.292;18.598;2022-12-01T04:02:27;1.24;91.53
70271;SHT31;57680;54.292;18.598;2022-12-01T04:04:53;1.26;91.36
70271;SHT31;57680;54.292;18.598;2022-12-01T04:07:19;1.28;91.05
70271;SHT31;57680;54.292;18.598;2022-12-01T04:09:45;1.30;91.20
70271;SHT31;57680;54.292;18.598;2022-12-01T04:12:12;1.32;90.92
70271;SHT31;57680;54.292;18.598;2022-12-01T04:14:58;1.27;91.06
70271;SHT31;57680;54.292;18.598;2022-12-01T04:17:24;1.24;91.28
70271;SHT31;57680;54.292;18.598;2022-12-01T04:19:50;1.26;91.07
70271;SHT31;57680;54.292;18.598;2022-12-01T04:22:16;1.21;90.57
70271;SHT31;57680;54.292;18.598;2022-12-01T04:24:42;1.30;90.26
70271;SHT31;57680;54.292;18.598;2022-12-01T04:27:07;1.26;90.45
70271;SHT31;57680;54.292;18.598;2022-12-01T04:29:33;1.28;90.82
70271;SHT31;57680;54.292;18.598;2022-12-01T04:31:58;1.26;90.78
70271;SHT31;57680;54.292;18.598;2022-12-01T04:34:24;1.26;90.54
70271;SHT31;57680;54.292;18.598;2022-12-01T04:36:49;1.28;90.78
70271;SHT31;57680;54.292;18.598;2022-12-01T04:39:15;1.24;90.90
70271;SHT31;57680;54.292;18.598;2022-12-01T04:41:41;1.27;91.60
70271;SHT31;57680;54.292;18.598;2022-12-01T04:44:08;1.27;91.45
70271;SHT31;57680;54.292;18.598;2022-12-01T04:46:33;1.37;90.76
70271;SHT31;57680;54.292;18.598;2022-12-01T04:48:58;1.32;90.43
70271;SHT31;57680;54.292;18.598;2022-12-01T04:51:24;1.24;90.60
70271;SHT31;57680;54.292;18.598;2022-12-01T04:53:50;1.23;90.96
70271;SHT31;57680;54.292;18.598;2022-12-01T04:56:15;1.26;90.69
70271;SHT31;57680;54.292;18.598;2022-12-01T04:58:41;1.23;90.50
70271;SHT31;57680;54.292;18.598;2022-12-01T05:01:10;1.23;90.67
70271;SHT31;57680;54.292;18.598;2022-12-01T05:03:40;1.35;89.69
70271;SHT31;57680;54.292;18.598;2022-12-01T05:06:09;1.34;89.92
70271;SHT31;57680;54.292;18.598;2022-12-01T05:08:35;1.32;89.55
70271;SHT31;57680;54.292;18.598;2022-12-01T05:11:00;1.27;89.73
70271;SHT31;57680;54.292;18.598;2022-12-01T05:13:27;1.32;87.73
70271;SHT31;57680;54.292;18.598;2022-12-01T05:15:52;1.28;88.15
70271;SHT31;57680;54.292;18.598;2022-12-01T05:18:18;1.28;87.83
70271;SHT31;57680;54.292;18.598;2022-12-01T05:20:44;1.31;88.15
70271;SHT31;57680;54.292;18.598;2022-12-01T05:23:32;1.31;88.15
70271;SHT31;57680;54.292;18.598;2022-12-01T05:25:59;1.34;87.97
70271;SHT31;57680;54.292;18.598;2022-12-01T05:28:25;1.38;87.16
70271;SHT31;57680;54.292;18.598;2022-12-01T05:30:52;1.44;86.68
70271;SHT31;57680;54.292;18.598;2022-12-01T05:33:18;1.48;86.03
70271;SHT31;57680;54.292;18.598;2022-12-01T05:35:44;1.45;86.48
70271;SHT31;57680;54.292;18.598;2022-12-01T05:38:10;1.40;86.83
70271;SHT31;57680;54.292;18.598;2022-12-01T05:40:36;1.37;87.50
70271;SHT31;57680;54.292;18.598;2022-12-01T05:43:01;1.35;87.93
70271;SHT31;57680;54.292;18.598;2022-12-01T05:45:27;1.32;87.83
70271;SHT31;57680;54.292;18.598;2022-12-01T05:47:57;1.42;87.08
70271;SHT31;57680;54.292;18.598;2022-12-01T05:50:23;1.32;86.39
70271;SHT31;57680;54.292;18.598;2022-12-01T05:52:49;1.35;86.93
70271;SHT31;57680;54.292;18.598;2022-12-01T05:55:15;1.34;87.08
70271;SHT31;57680;54.292;18.598;2022-12-01T05:57:40;1.34;87.12
70271;SHT31;57680;54.292;18.598;2022-12-01T06:00:06;1.34;87.33
70271;SHT31;57680;54.292;18.598;2022-12-01T06:02:32;1.44;86.35
70271;SHT31;57680;54.292;18.598;2022-12-01T06:04:58;1.44;87.10
70271;SHT31;57680;54.292;18.598;2022-12-01T06:07:23;1.50;86.58
70271;SHT31;57680;54.292;18.598;2022-12-01T06:09:50;1.42;86.80
70271;SHT31;57680;54.292;18.598;2022-12-01T06:12:17;1.41;87.14
70271;SHT31;57680;54.292;18.598;2022-12-01T06:14:43;1.32;87.30
70271;SHT31;57680;54.292;18.598;2022-12-01T06:17:08;1.27;87.56
70271;SHT31;57680;54.292;18.598;2022-12-01T06:19:33;1.30;88.03
70271;SHT31;57680;54.292;18.598;2022-12-01T06:21:59;1.34;88.22
70271;SHT31;57680;54.292;18.598;2022-12-01T06:24:24;1.40;87.40
70271;SHT31;57680;54.292;18.598;2022-12-01T06:26:50;1.31;87.90
70271;SHT31;57680;54.292;18.598;2022-12-01T06:29:15;1.32;88.14
70271;SHT31;57680;54.292;18.598;2022-12-01T06:31:41;1.35;87.93
70271;SHT31;57680;54.292;18.598;2022-12-01T06:34:07;1.24;88.22
70271;SHT31;57680;54.292;18.598;2022-12-01T06:36:32;1.20;88.43
70271;SHT31;57680;54.292;18.598;2022-12-01T06:38:58;1.23;88.09
70271;SHT31;57680;54.292;18.598;2022-12-01T06:41:23;1.27;87.43
70271;SHT31;57680;54.292;18.598;2022-12-01T06:43:49;1.20;88.05
70271;SHT31;57680;54.292;18.598;2022-12-01T06:46:15;1.23;88.53
70271;SHT31;57680;54.292;18.598;2022-12-01T06:48:40;1.23;88.43
70271;SHT31;57680;54.292;18.598;2022-12-01T06:51:06;1.28;88.36
70271;SHT31;57680;54.292;18.598;2022-12-01T06:53:31;1.30;87.85
70271;SHT31;57680;54.292;18.598;2022-12-01T06:56:01;1.35;87.68
70271;SHT31;57680;54.292;18.598;2022-12-01T06:58:26;1.37;86.67
70271;SHT31;57680;54.292;18.598;2022-12-01T07:00:51;1.48;86.08
70271;SHT31;57680;54.292;18.598;2022-12-01T07:03:17;1.34;86.53
70271;SHT31;57680;54.292;18.598;2022-12-01T07:05:42;1.35;86.68
70271;SHT31;57680;54.292;18.598;2022-12-01T07:08:09;1.30;86.52
70271;SHT31;57680;54.292;18.598;2022-12-01T07:10:34;1.41;86.00
70271;SHT31;57680;54.292;18.598;2022-12-01T07:13:00;1.37;86.71
70271;SHT31;57680;54.292;18.598;2022-12-01T07:15:25;1.44;87.59
70271;SHT31;57680;54.292;18.598;2022-12-01T07:17:52;1.42;87.04
70271;SHT31;57680;54.292;18.598;2022-12-01T07:20:18;1.41;86.50
70271;SHT31;57680;54.292;18.598;2022-12-01T07:22:43;1.38;86.49
70271;SHT31;57680;54.292;18.598;2022-12-01T07:25:09;1.35;86.94
70271;SHT31;57680;54.292;18.598;2022-12-01T07:27:34;1.35;86.70
70271;SHT31;57680;54.292;18.598;2022-12-01T07:30:00;1.32;87.33
70271;SHT31;57680;54.292;18.598;2022-12-01T07:32:25;1.37;87.41
70271;SHT31;57680;54.292;18.598;2022-12-01T07:34:51;1.37;87.69
70271;SHT31;57680;54.292;18.598;2022-12-01T07:37:16;1.35;87.80
70271;SHT31;57680;54.292;18.598;2022-12-01T07:39:42;1.37;87.71
70271;SHT31;57680;54.292;18.598;2022-12-01T07:42:07;1.34;88.04
70271;SHT31;57680;54.292;18.598;2022-12-01T07:44:33;1.31;88.16
70271;SHT31;57680;54.292;18.598;2022-12-01T07:46:58;1.30;88.30
70271;SHT31;57680;54.292;18.598;2022-12-01T07:49:24;1.31;88.47
70271;SHT31;57680;54.292;18.598;2022-12-01T07:51:49;1.31;88.47
70271;SHT31;57680;54.292;18.598;2022-12-01T07:54:15;1.32;88.41
70271;SHT31;57680;54.292;18.598;2022-12-01T07:56:42;1.31;88.61
70271;SHT31;57680;54.292;18.598;2022-12-01T07:59:07;1.35;88.30
70271;SHT31;57680;54.292;18.598;2022-12-01T08:01:33;1.34;88.29
70271;SHT31;57680;54.292;18.598;2022-12-01T08:03:59;1.34;88.06
70271;SHT31;57680;54.292;18.598;2022-12-01T08:06:25;1.38;87.94
70271;SHT31;57680;54.292;18.598;2022-12-01T08:08:51;1.40;87.52
70271;SHT31;57680;54.292;18.598;2022-12-01T08:13:42;1.40;87.25
70271;SHT31;57680;54.292;18.598;2022-12-01T08:16:10;1.44;87.00
70271;SHT31;57680;54.292;18.598;2022-12-01T08:18:37;1.45;87.35
70271;SHT31;57680;54.292;18.598;2022-12-01T08:21:04;1.48;86.90
70271;SHT31;57680;54.292;18.598;2022-12-01T08:23:30;1.50;86.83
70271;SHT31;57680;54.292;18.598;2022-12-01T08:26:00;1.51;86.59
70271;SHT31;57680;54.292;18.598;2022-12-01T08:28:26;1.54;86.76
70271;SHT31;57680;54.292;18.598;2022-12-01T08:30:51;1.55;86.10
70271;SHT31;57680;54.292;18.598;2022-12-01T08:33:17;1.52;85.79
70271;SHT31;57680;54.292;18.598;2022-12-01T08:35:42;1.55;85.62
70271;SHT31;57680;54.292;18.598;2022-12-01T08:38:08;1.52;86.07
70271;SHT31;57680;54.292;18.598;2022-12-01T08:40:34;1.56;86.33
70271;SHT31;57680;54.292;18.598;2022-12-01T08:42:59;1.61;86.12
70271;SHT31;57680;54.292;18.598;2022-12-01T08:45:25;1.58;86.38
70271;SHT31;57680;54.292;18.598;2022-12-01T08:47:52;1.56;86.42
70271;SHT31;57680;54.292;18.598;2022-12-01T08:50:23;1.55;86.51
70271;SHT31;57680;54.292;18.598;2022-12-01T08:52:48;1.54;86.00
70271;SHT31;57680;54.292;18.598;2022-12-01T08:55:14;1.52;86.09
70271;SHT31;57680;54.292;18.598;2022-12-01T08:57:39;1.59;86.10
70271;SHT31;57680;54.292;18.598;2022-12-01T09:00:05;1.55;86.08
70271;SHT31;57680;54.292;18.598;2022-12-01T09:02:31;1.54;86.41
70271;SHT31;57680;54.292;18.598;2022-12-01T09:04:57;1.54;86.61
70271;SHT31;57680;54.292;18.598;2022-12-01T09:07:22;1.54;86.75
70271;SHT31;57680;54.292;18.598;2022-12-01T09:09:48;1.52;85.75
70271;SHT31;57680;54.292;18.598;2022-12-01T09:12:14;1.65;84.26
70271;SHT31;57680;54.292;18.598;2022-12-01T09:14:42;1.62;84.80
70271;SHT31;57680;54.292;18.598;2022-12-01T09:17:13;1.62;85.47
70271;SHT31;57680;54.292;18.598;2022-12-01T09:19:38;1.63;85.02
70271;SHT31;57680;54.292;18.598;2022-12-01T09:22:04;1.62;84.97
70271;SHT31;57680;54.292;18.598;2022-12-01T09:24:30;1.65;85.22
70271;SHT31;57680;54.292;18.598;2022-12-01T09:26:56;1.61;85.34
70271;SHT31;57680;54.292;18.598;2022-12-01T09:29:22;1.66;85.62
70271;SHT31;57680;54.292;18.598;2022-12-01T09:31:48;1.72;85.67
70271;SHT31;57680;54.292;18.598;2022-12-01T09:34:18;1.82;85.85
70271;SHT31;57680;54.292;18.598;2022-12-01T09:36:45;1.86;85.31
70271;SHT31;57680;54.292;18.598;2022-12-01T09:39:14;1.92;84.76
70271;SHT31;57680;54.292;18.598;2022-12-01T09:41:55;2.02;84.57
70271;SHT31;57680;54.292;18.598;2022-12-01T09:44:42;2.10;84.53
70271;SHT31;57680;54.292;18.598;2022-12-01T09:47:15;2.16;84.04
70271;SHT31;57680;54.292;18.598;2022-12-01T09:49:59;2.16;83.58
70271;SHT31;57680;54.292;18.598;2022-12-01T09:52:30;2.21;83.44
70271;SHT31;57680;54.292;18.598;2022-12-01T09:54:58;2.27;83.52
70271;SHT31;57680;54.292;18.598;2022-12-01T09:59:50;2.31;83.32
70271;SHT31;57680;54.292;18.598;2022-12-01T10:02:39;2.37;83.00
70271;SHT31;57680;54.292;18.598;2022-12-01T10:05:12;2.31;82.45
70271;SHT31;57680;54.292;18.598;2022-12-01T10:07:44;2.30;82.49
70271;SHT31;57680;54.292;18.598;2022-12-01T10:10:13;2.33;82.87
70271;SHT31;57680;54.292;18.598;2022-12-01T10:12:41;2.31;83.04
70271;SHT31;57680;54.292;18.598;2022-12-01T10:15:21;2.33;82.89
70271;SHT31;57680;54.292;18.598;2022-12-01T10:20:55;2.38;83.02
70271;SHT31;57680;54.292;18.598;2022-12-01T10:26:34;2.40;82.89
70271;SHT31;57680;54.292;18.598;2022-12-01T10:29:27;2.45;83.06
70271;SHT31;57680;54.292;18.598;2022-12-01T10:32:02;2.52;83.12
70271;SHT31;57680;54.292;18.598;2022-12-01T10:34:38;2.58;83.27
70271;SHT31;57680;54.292;18.598;2022-12-01T10:37:04;2.64;83.11
70271;SHT31;57680;54.292;18.598;2022-12-01T10:39:35;2.70;83.12
70271;SHT31;57680;54.292;18.598;2022-12-01T10:42:06;2.64;82.54
70271;SHT31;57680;54.292;18.598;2022-12-01T10:44:33;2.64;82.23
70271;SHT31;57680;54.292;18.598;2022-12-01T10:46:58;2.61;82.35
70271;SHT31;57680;54.292;18.598;2022-12-01T10:49:38;2.57;82.57
70271;SHT31;57680;54.292;18.598;2022-12-01T10:52:04;2.61;82.67
70271;SHT31;57680;54.292;18.598;2022-12-01T10:54:38;2.58;82.52
70271;SHT31;57680;54.292;18.598;2022-12-01T10:57:06;2.60;82.77
70271;SHT31;57680;54.292;18.598;2022-12-01T10:59:51;2.60;82.51
70271;SHT31;57680;54.292;18.598;2022-12-01T11:02:21;2.61;82.52
70271;SHT31;57680;54.292;18.598;2022-12-01T11:04:56;2.58;82.63
70271;SHT31;57680;54.292;18.598;2022-12-01T11:07:31;2.60;82.45
70271;SHT31;57680;54.292;18.598;2022-12-01T11:10:33;2.58;82.25
70271;SHT31;57680;54.292;18.598;2022-12-01T11:13:20;2.58;82.04
70271;SHT31;57680;54.292;18.598;2022-12-01T11:15:55;2.61;81.90
70271;SHT31;57680;54.292;18.598;2022-12-01T11:21:15;2.66;81.99
70271;SHT31;57680;54.292;18.598;2022-12-01T11:23:51;2.66;81.46
70271;SHT31;57680;54.292;18.598;2022-12-01T11:29:04;2.68;81.75
70271;SHT31;57680;54.292;18.598;2022-12-01T11:31:38;2.68;81.24
70271;SHT31;57680;54.292;18.598;2022-12-01T11:34:14;2.65;81.24
70271;SHT31;57680;54.292;18.598;2022-12-01T11:36:45;2.70;81.13
70271;SHT31;57680;54.292;18.598;2022-12-01T11:39:22;2.70;81.58
70271;SHT31;57680;54.292;18.598;2022-12-01T11:41:54;2.68;81.31
70271;SHT31;57680;54.292;18.598;2022-12-01T11:44:20;2.66;80.84
70271;SHT31;57680;54.292;18.598;2022-12-01T11:46:46;2.65;80.48
70271;SHT31;57680;54.292;18.598;2022-12-01T11:49:21;2.62;80.14
70271;SHT31;57680;54.292;18.598;2022-12-01T11:51:47;2.60;80.42
70271;SHT31;57680;54.292;18.598;2022-12-01T11:54:22;2.55;80.00
70271;SHT31;57680;54.292;18.598;2022-12-01T11:56:49;2.54;80.06
70271;SHT31;57680;54.292;18.598;2022-12-01T11:59:26;2.51;79.61
70271;SHT31;57680;54.292;18.598;2022-12-01T12:28:34;2.48;79.10
70271;SHT31;57680;54.292;18.598;2022-12-01T12:43:39;2.47;79.18
70271;SHT31;57680;54.292;18.598;2022-12-01T12:46:09;2.41;79.49
70271;SHT31;57680;54.292;18.598;2022-12-01T12:51:27;2.38;79.96
70271;SHT31;57680;54.292;18.598;2022-12-01T12:54:27;2.37;80.06
70271;SHT31;57680;54.292;18.598;2022-12-01T12:59:51;2.48;79.41
70271;SHT31;57680;54.292;18.598;2022-12-01T13:02:23;2.47;79.34
70271;SHT31;57680;54.292;18.598;2022-12-01T13:08:00;2.45;79.51
70271;SHT31;57680;54.292;18.598;2022-12-01T13:10:39;2.41;79.61
70271;SHT31;57680;54.292;18.598;2022-12-01T13:15:57;2.34;78.80
70271;SHT31;57680;54.292;18.598;2022-12-01T13:18:34;2.27;79.55
70271;SHT31;57680;54.292;18.598;2022-12-01T13:21:03;2.23;79.82
70271;SHT31;57680;54.292;18.598;2022-12-01T13:23:29;2.23;79.85
70271;SHT31;57680;54.292;18.598;2022-12-01T13:25:57;2.19;80.04
70271;SHT31;57680;54.292;18.598;2022-12-01T13:28:28;2.09;79.70
70271;SHT31;57680;54.292;18.598;2022-12-01T13:31:00;2.10;79.34
70271;SHT31;57680;54.292;18.598;2022-12-01T13:33:26;2.13;79.61
70271;SHT31;57680;54.292;18.598;2022-12-01T13:35:53;2.10;79.20
70271;SHT31;57680;54.292;18.598;2022-12-01T13:38:34;2.06;79.55
70271;SHT31;57680;54.292;18.598;2022-12-01T13:46:55;2.06;80.63
70271;SHT31;57680;54.292;18.598;2022-12-01T13:49:47;2.06;81.16
70271;SHT31;57680;54.292;18.598;2022-12-01T13:55:24;1.98;81.47
70271;SHT31;57680;54.292;18.598;2022-12-01T14:08:15;1.85;82.00
70271;SHT31;57680;54.292;18.598;2022-12-01T14:11:00;1.83;82.31
70271;SHT31;57680;54.292;18.598;2022-12-01T14:13:27;1.82;82.17
70271;SHT31;57680;54.292;18.598;2022-12-01T14:15:57;1.78;81.84
70271;SHT31;57680;54.292;18.598;2022-12-01T14:25:23;1.76;82.31
70271;SHT31;57680;54.292;18.598;2022-12-01T14:28:00;1.75;82.56
70271;SHT31;57680;54.292;18.598;2022-12-01T14:41:46;1.73;82.87
70271;SHT31;57680;54.292;18.598;2022-12-01T14:47:28;1.73;83.30
70271;SHT31;57680;54.292;18.598;2022-12-01T14:52:30;1.75;83.20
70271;SHT31;57680;54.292;18.598;2022-12-01T14:54:59;1.72;83.44
70271;SHT31;57680;54.292;18.598;2022-12-01T14:57:42;1.72;83.52
70271;SHT31;57680;54.292;18.598;2022-12-01T15:00:21;1.68;83.62
70271;SHT31;57680;54.292;18.598;2022-12-01T15:02:51;1.71;83.73
70271;SHT31;57680;54.292;18.598;2022-12-01T15:05:19;1.71;83.71
70271;SHT31;57680;54.292;18.598;2022-12-01T15:07:48;1.69;83.67
70271;SHT31;57680;54.292;18.598;2022-12-01T15:10:25;1.71;83.50
70271;SHT31;57680;54.292;18.598;2022-12-01T15:12:52;1.69;83.46
70271;SHT31;57680;54.292;18.598;2022-12-01T15:15:20;1.69;83.47
70271;SHT31;57680;54.292;18.598;2022-12-01T15:17:47;1.71;83.46
70271;SHT31;57680;54.292;18.598;2022-12-01T15:20:49;1.71;83.16
70271;SHT31;57680;54.292;18.598;2022-12-01T15:23:19;1.72;83.24
70271;SHT31;57680;54.292;18.598;2022-12-01T15:25:45;1.69;83.21
70271;SHT31;57680;54.292;18.598;2022-12-01T15:28:17;1.71;83.11
70271;SHT31;57680;54.292;18.598;2022-12-01T15:30:50;1.69;83.18
70271;SHT31;57680;54.292;18.598;2022-12-01T15:33:20;1.71;83.43
70271;SHT31;57680;54.292;18.598;2022-12-01T15:35:47;1.68;83.46
70271;SHT31;57680;54.292;18.598;2022-12-01T15:38:17;1.69;83.35
70271;SHT31;57680;54.292;18.598;2022-12-01T15:40:44;1.71;83.33
70271;SHT31;57680;54.292;18.598;2022-12-01T15:43:19;1.71;83.47
70271;SHT31;57680;54.292;18.598;2022-12-01T15:46:10;1.72;83.51
70271;SHT31;57680;54.292;18.598;2022-12-01T15:48:36;1.71;83.40
70271;SHT31;57680;54.292;18.598;2022-12-01T15:51:07;1.68;83.20
70271;SHT31;57680;54.292;18.598;2022-12-01T15:53:36;1.69;83.42
70271;SHT31;57680;54.292;18.598;2022-12-01T15:56:08;1.63;83.45
70271;SHT31;57680;54.292;18.598;2022-12-01T15:58:39;1.63;83.52
70271;SHT31;57680;54.292;18.598;2022-12-01T16:01:10;1.62;83.81
70271;SHT31;57680;54.292;18.598;2022-12-01T16:03:53;1.59;83.82
70271;SHT31;57680;54.292;18.598;2022-12-01T16:06:22;1.59;83.76
70271;SHT31;57680;54.292;18.598;2022-12-01T16:09:06;1.58;83.86
70271;SHT31;57680;54.292;18.598;2022-12-01T16:12:03;1.59;84.12
70271;SHT31;57680;54.292;18.598;2022-12-01T16:14:28;1.59;84.24
70271;SHT31;57680;54.292;18.598;2022-12-01T16:16:57;1.62;84.06
70271;SHT31;57680;54.292;18.598;2022-12-01T16:19:30;1.65;83.91
70271;SHT31;57680;54.292;18.598;2022-12-01T16:24:42;1.66;83.76
70271;SHT31;57680;54.292;18.598;2022-12-01T16:27:21;1.69;83.51
70271;SHT31;57680;54.292;18.598;2022-12-01T16:29:53;1.69;83.47
70271;SHT31;57680;54.292;18.598;2022-12-01T16:32:40;1.71;83.35
70271;SHT31;57680;54.292;18.598;2022-12-01T16:35:25;1.72;83.54
70271;SHT31;57680;54.292;18.598;2022-12-01T16:37:52;1.73;83.27
70271;SHT31;57680;54.292;18.598;2022-12-01T16:40:18;1.75;83.11
70271;SHT31;57680;54.292;18.598;2022-12-01T16:42:44;1.75;82.95
70271;SHT31;57680;54.292;18.598;2022-12-01T16:45:12;1.76;82.94
70271;SHT31;57680;54.292;18.598;2022-12-01T16:47:41;1.79;82.93
70271;SHT31;57680;54.292;18.598;2022-12-01T16:50:12;1.81;82.91
70271;SHT31;57680;54.292;18.598;2022-12-01T16:52:39;1.78;82.86
70271;SHT31;57680;54.292;18.598;2022-12-01T16:58:12;1.81;83.22
70271;SHT31;57680;54.292;18.598;2022-12-01T17:00:37;1.81;83.04
70271;SHT31;57680;54.292;18.598;2022-12-01T17:03:03;1.81;83.00
70271;SHT31;57680;54.292;18.598;2022-12-01T17:05:30;1.81;82.91
70271;SHT31;57680;54.292;18.598;2022-12-01T17:07:56;1.79;83.13
70271;SHT31;57680;54.292;18.598;2022-12-01T17:10:21;1.81;83.21
70271;SHT31;57680;54.292;18.598;2022-12-01T17:12:47;1.79;83.06
70271;SHT31;57680;54.292;18.598;2022-12-01T17:15:14;1.82;83.36
70271;SHT31;57680;54.292;18.598;2022-12-01T17:17:39;1.79;82.94
70271;SHT31;57680;54.292;18.598;2022-12-01T17:20:06;1.82;83.00
70271;SHT31;57680;54.292;18.598;2022-12-01T17:22:33;1.81;83.20
70271;SHT31;57680;54.292;18.598;2022-12-01T17:24:58;1.81;82.96
70271;SHT31;57680;54.292;18.598;2022-12-01T17:27:26;1.81;82.94
70271;SHT31;57680;54.292;18.598;2022-12-01T17:29:53;1.83;82.91
70271;SHT31;57680;54.292;18.598;2022-12-01T17:32:18;1.82;83.07
70271;SHT31;57680;54.292;18.598;2022-12-01T17:34:44;1.85;83.10
70271;SHT31;57680;54.292;18.598;2022-12-01T17:37:09;1.85;83.22
70271;SHT31;57680;54.292;18.598;2022-12-01T17:39:35;1.85;83.34
70271;SHT31;57680;54.292;18.598;2022-12-01T17:42:00;1.83;83.36
70271;SHT31;57680;54.292;18.598;2022-12-01T17:44:26;1.86;83.26
70271;SHT31;57680;54.292;18.598;2022-12-01T17:46:51;1.87;83.18
70271;SHT31;57680;54.292;18.598;2022-12-01T17:49:17;1.86;83.36
70271;SHT31;57680;54.292;18.598;2022-12-01T17:51:42;1.85;83.01
70271;SHT31;57680;54.292;18.598;2022-12-01T17:54:08;1.87;83.09
70271;SHT31;57680;54.292;18.598;2022-12-01T17:56:34;1.86;83.23
70271;SHT31;57680;54.292;18.598;2022-12-01T17:59:00;1.86;83.15
70271;SHT31;57680;54.292;18.598;2022-12-01T18:01:25;1.82;83.09
70271;SHT31;57680;54.292;18.598;2022-12-01T18:03:51;1.82;83.15